TimeCDT,TemperatureF,Dew PointF,Humidity,Sea Level PressureIn,VisibilityMPH,Wind Direction,Wind SpeedMPH,Gust SpeedMPH,PrecipitationIn,Events,Conditions,WindDirDegrees,DateUTC
12:15 AM,59.0,54.7,86,29.92,7.0,WNW,5.8,-,N/A,,Overcast,290,2013-09-02 05:15:00
12:35 AM,57.7,54.9,90,29.92,5.0,NW,5.8,-,N/A,Rain,Light Rain,320,2013-09-02 05:35:00
12:55 AM,57.2,55.4,94,29.92,2.5,WNW,6.9,-,N/A,Rain,Heavy Rain,300,2013-09-02 05:55:00
1:15 AM,56.8,54.9,93,29.93,7.0,WNW,6.9,-,N/A,,Overcast,290,2013-09-02 06:15:00
1:35 AM,56.5,54.5,93,29.93,5.0,WNW,8.1,-,N/A,,Overcast,300,2013-09-02 06:35:00
1:55 AM,55.6,53.2,92,29.93,10.0,NW,5.8,-,N/A,,Mostly Cloudy,320,2013-09-02 06:55:00
2:15 AM,55.0,52.7,92,29.93,7.0,NW,6.9,-,N/A,,Mostly Cloudy,320,2013-09-02 07:15:00
2:35 AM,54.9,52.7,92,29.93,10.0,NW,5.8,-,N/A,,Overcast,320,2013-09-02 07:35:00
2:55 AM,54.9,52.7,92,29.93,10.0,NNW,4.6,-,N/A,,Overcast,340,2013-09-02 07:55:00
3:15 AM,54.9,52.5,92,29.93,10.0,NNW,4.6,-,N/A,,Overcast,330,2013-09-02 08:15:00
3:35 AM,54.1,51.1,89,29.94,10.0,NW,10.4,-,N/A,,Overcast,320,2013-09-02 08:35:00
3:55 AM,54.1,51.3,90,29.94,10.0,NW,5.8,-,N/A,,Overcast,320,2013-09-02 08:55:00
4:15 AM,53.8,51.4,92,29.94,10.0,NNW,3.5,-,N/A,,Overcast,330,2013-09-02 09:15:00
4:35 AM,53.6,51.3,92,29.95,10.0,NNW,5.8,-,N/A,,Overcast,340,2013-09-02 09:35:00
4:55 AM,52.9,50.4,91,29.96,7.0,NNW,6.9,-,N/A,,Overcast,330,2013-09-02 09:55:00
5:15 AM,52.2,50.0,92,29.96,10.0,North,4.6,-,N/A,,Overcast,350,2013-09-02 10:15:00
5:35 AM,52.0,49.1,90,29.97,10.0,NNW,4.6,-,N/A,,Mostly Cloudy,340,2013-09-02 10:35:00
5:55 AM,51.8,49.1,90,29.97,10.0,Calm,Calm,-,N/A,,Overcast,0,2013-09-02 10:55:00
6:15 AM,51.3,48.4,90,29.97,10.0,WNW,5.8,-,N/A,,Overcast,300,2013-09-02 11:15:00
6:35 AM,50.9,48.2,90,29.98,10.0,NW,3.5,-,N/A,,Overcast,320,2013-09-02 11:35:00
6:55 AM,50.9,48.2,90,29.99,10.0,NW,4.6,-,N/A,,Overcast,320,2013-09-02 11:55:00
7:15 AM,51.1,48.2,90,30.00,7.0,NNW,4.6,-,N/A,,Overcast,340,2013-09-02 12:15:00
7:35 AM,51.8,48.6,89,30.00,10.0,NNW,5.8,-,N/A,,Overcast,340,2013-09-02 12:35:00
7:55 AM,51.8,48.2,88,30.00,10.0,NNW,5.8,-,N/A,,Overcast,340,2013-09-02 12:55:00
8:15 AM,52.3,48.4,86,30.01,10.0,North,6.9,-,N/A,,Overcast,350,2013-09-02 13:15:00
8:35 AM,52.5,48.6,86,30.01,7.0,NW,5.8,-,N/A,,Overcast,320,2013-09-02 13:35:00
8:55 AM,52.7,48.2,85,30.01,10.0,NNW,5.8,-,N/A,,Overcast,330,2013-09-02 13:55:00
9:15 AM,53.4,47.8,81,30.02,10.0,NNW,5.8,-,N/A,,Mostly Cloudy,330,2013-09-02 14:15:00
9:35 AM,53.6,48.0,81,30.03,10.0,NW,8.1,-,N/A,,Overcast,310,2013-09-02 14:35:00
9:55 AM,54.1,48.0,80,30.03,10.0,North,6.9,-,N/A,,Overcast,10,2013-09-02 14:55:00
10:15 AM,53.6,48.2,82,30.04,10.0,NNW,8.1,-,N/A,,Overcast,330,2013-09-02 15:15:00
10:35 AM,55.0,48.2,78,30.04,10.0,NW,6.9,-,N/A,,Overcast,320,2013-09-02 15:35:00
10:55 AM,54.7,48.7,80,30.04,10.0,North,8.1,-,N/A,,Overcast,10,2013-09-02 15:55:00
11:15 AM,54.0,48.2,81,30.05,10.0,North,5.8,-,N/A,,Overcast,360,2013-09-02 16:15:00
11:35 AM,55.4,47.5,75,30.05,10.0,NNW,4.6,16.1,N/A,,Overcast,340,2013-09-02 16:35:00
11:55 AM,55.6,48.7,78,30.04,10.0,NNW,5.8,-,N/A,,Overcast,340,2013-09-02 16:55:00
12:15 PM,56.3,48.4,75,30.04,10.0,NNW,6.9,-,N/A,,Overcast,340,2013-09-02 17:15:00
12:35 PM,57.2,48.6,73,30.04,10.0,NNW,6.9,-,N/A,,Overcast,340,2013-09-02 17:35:00
12:55 PM,57.9,48.6,71,30.04,10.0,NNE,6.9,-,N/A,,Overcast,20,2013-09-02 17:55:00
1:15 PM,58.1,48.7,71,30.04,10.0,NW,8.1,-,N/A,,Overcast,310,2013-09-02 18:15:00
1:35 PM,58.5,49.1,71,30.04,10.0,North,8.1,-,N/A,,Overcast,350,2013-09-02 18:35:00
1:55 PM,58.6,48.6,69,30.04,10.0,NNW,8.1,-,N/A,,Overcast,330,2013-09-02 18:55:00
2:15 PM,59.0,48.9,69,30.04,10.0,NNW,6.9,-,N/A,,Overcast,330,2013-09-02 19:15:00
2:35 PM,58.6,49.3,71,30.04,10.0,NNW,8.1,-,N/A,,Overcast,340,2013-09-02 19:35:00
2:55 PM,59.0,48.6,68,30.03,10.0,NNW,9.2,-,N/A,,Overcast,340,2013-09-02 19:55:00
3:15 PM,58.3,49.8,73,30.03,10.0,North,6.9,-,N/A,,Overcast,350,2013-09-02 20:15:00
3:35 PM,58.8,48.7,69,30.03,10.0,NW,9.2,-,N/A,,Overcast,320,2013-09-02 20:35:00
3:55 PM,59.0,48.4,68,30.03,10.0,North,4.6,-,N/A,,Mostly Cloudy,350,2013-09-02 20:55:00
4:15 PM,59.2,48.6,68,30.03,10.0,North,6.9,-,N/A,,Overcast,360,2013-09-02 21:15:00
4:35 PM,58.3,49.1,71,30.03,10.0,North,8.1,-,N/A,,Overcast,10,2013-09-02 21:35:00
4:55 PM,58.1,49.1,72,30.04,10.0,NNW,5.8,-,N/A,,Overcast,330,2013-09-02 21:55:00
5:15 PM,57.6,48.2,71,30.04,10.0,NNW,6.9,-,N/A,,Overcast,340,2013-09-02 22:15:00
5:35 PM,57.2,48.4,72,30.04,10.0,NNW,8.1,-,N/A,,Overcast,340,2013-09-02 22:35:00
5:55 PM,56.5,48.6,75,30.04,10.0,North,6.9,-,N/A,,Overcast,350,2013-09-02 22:55:00
6:15 PM,56.7,47.5,71,30.04,10.0,NNW,3.5,-,N/A,,Overcast,340,2013-09-02 23:15:00
6:35 PM,55.9,48.2,75,30.05,10.0,NNW,3.5,-,N/A,,Overcast,330,2013-09-02 23:35:00
6:55 PM,55.4,48.0,76,30.05,10.0,NW,4.6,-,N/A,,Mostly Cloudy,310,2013-09-02 23:55:00
7:15 PM,53.8,48.0,81,30.04,10.0,WNW,3.5,-,N/A,,Mostly Cloudy,300,2013-09-03 00:15:00
7:35 PM,52.7,47.7,83,30.04,10.0,Calm,Calm,-,N/A,,Mostly Cloudy,0,2013-09-03 00:35:00
7:55 PM,50.7,46.8,86,30.04,10.0,NW,3.5,-,N/A,,Scattered Clouds,310,2013-09-03 00:55:00
8:15 PM,50.0,46.8,89,30.05,10.0,WNW,3.5,-,N/A,,Clear,300,2013-09-03 01:15:00
8:35 PM,48.6,45.7,90,30.05,10.0,Calm,Calm,-,N/A,,Clear,0,2013-09-03 01:35:00
8:55 PM,48.4,45.9,91,30.05,10.0,Calm,Calm,-,N/A,,Clear,0,2013-09-03 01:55:00
9:15 PM,48.4,45.9,91,30.05,10.0,Calm,Calm,-,N/A,,Clear,0,2013-09-03 02:15:00
9:35 PM,46.4,44.2,92,30.05,10.0,Calm,Calm,-,N/A,,Clear,0,2013-09-03 02:35:00
9:55 PM,43.5,41.7,93,30.05,2.5,Calm,Calm,-,N/A,,Clear,0,2013-09-03 02:55:00
10:15 PM,44.1,42.6,95,30.06,10.0,Calm,Calm,-,N/A,,Clear,0,2013-09-03 03:15:00
10:35 PM,44.1,42.8,95,30.06,10.0,Calm,Calm,-,N/A,,Clear,0,2013-09-03 03:35:00
10:55 PM,43.5,42.3,95,30.05,10.0,Calm,Calm,-,N/A,,Clear,0,2013-09-03 03:55:00
11:15 PM,43.5,42.4,96,30.05,10.0,Calm,Calm,-,N/A,,Clear,0,2013-09-03 04:15:00
11:35 PM,41.2,39.9,95,30.05,10.0,Calm,Calm,-,N/A,,Clear,0,2013-09-03 04:35:00
11:55 PM,40.5,39.2,95,30.05,7.0,Calm,Calm,-,N/A,,Clear,0,2013-09-03 04:55:00